KGXY/GXY METAR and TAF weather

Enter ICAO airport designator
Station Type Date Time Source
KGXY METAR 2020/07/09 22:56 UTC NOAA

KGXY 092256Z 13010KT 10SM OVC003 33/09 A2999 RMK AO2 SLP107 T03330089


Station Type Date Time Source
KGXY Decoded METAR 2020/07/09 22:56 UTC NOAA

Greeley, Greeley-Weld County Airport, CO, United States (KGXY) 40-26N 104-38W
Jul 09, 2020 - 06:56 PM EDT / 2020.07.09 2256 UTC
Wind: from the SE (130 degrees) at 12 MPH (10 KT):0
Visibility: 10 mile(s):0
Sky conditions: overcast
Temperature: 91.9 F (33.3 C)
Dew Point: 48.0 F (8.9 C)
Relative Humidity: 22%
Pressure (altimeter): 29.99 in. Hg (1015 hPa)
ob: KGXY 092256Z 13010KT 10SM OVC003 33/09 A2999 RMK AO2 SLP107 T03330089
cycle: 23

Station Type Date Time Source
KGXY TAF UTC NOAA

Error!

Example: see airport list